createdAt,value
2022-12-20T00:02:10.432Z,100608.77
2022-12-20T00:04:40.944Z,100607.17
2022-12-20T00:07:10.879Z,100606.81
2022-12-20T00:09:39.954Z,100610.70
2022-12-20T00:12:08.945Z,100606.46
2022-12-20T00:14:37.954Z,100600.54
2022-12-20T00:17:07.452Z,100599.71
2022-12-20T00:19:39.371Z,100595.08
2022-12-20T00:22:08.400Z,100589.20
2022-12-20T00:24:38.679Z,100585.33
2022-12-20T00:27:07.747Z,100577.23
2022-12-20T00:29:37.663Z,100576.45
2022-12-20T00:32:06.895Z,100580.54
2022-12-20T00:34:36.135Z,100575.20
2022-12-20T00:37:05.337Z,100574.56
2022-12-20T00:39:34.324Z,100579.07
2022-12-20T00:42:03.247Z,100574.02
2022-12-20T00:45:47.612Z,100570.88
2022-12-20T00:48:18.275Z,100570.63
2022-12-20T00:50:47.877Z,100564.90
2022-12-20T00:53:21.148Z,100565.32
2022-12-20T00:55:56.712Z,100558.27
2022-12-20T00:58:27.458Z,100560.56
2022-12-20T01:00:57.320Z,100564.20
2022-12-20T01:03:27.593Z,100556.72
2022-12-20T01:06:02.400Z,100560.67
2022-12-20T01:08:33.104Z,100560.70
2022-12-20T01:11:08.324Z,100558.21
2022-12-20T01:13:40.165Z,100556.43
2022-12-20T01:16:21.102Z,100553.98
2022-12-20T01:18:51.965Z,100550.41
2022-12-20T01:21:23.548Z,100544.01
2022-12-20T01:23:52.750Z,100544.09
2022-12-20T01:26:25.450Z,100542.52
2022-12-20T01:28:57.944Z,100548.22
2022-12-20T01:31:29.376Z,100546.88
2022-12-20T01:34:01.266Z,100550.52
2022-12-20T01:36:35.778Z,100546.14
2022-12-20T01:39:09.354Z,100547.96
2022-12-20T01:41:40.039Z,100551.98
2022-12-20T01:44:35.488Z,100540.28
2022-12-20T01:47:04.949Z,100531.89
2022-12-20T01:49:43.639Z,100533.44
2022-12-20T01:52:21.232Z,100522.75
2022-12-20T01:55:11.307Z,100521.03
2022-12-20T01:57:52.133Z,100521.20
2022-12-20T02:00:21.788Z,100515.42
2022-12-20T02:02:51.330Z,100514.83
2022-12-20T02:05:24.175Z,100511.72
2022-12-20T02:07:57.018Z,100510.30
2022-12-20T02:10:50.899Z,100518.39
2022-12-20T02:14:02.906Z,100523.05
2022-12-20T02:16:39.175Z,100518.91
2022-12-20T02:19:37.709Z,100508.09
2022-12-20T02:22:28.587Z,100497.03
2022-12-20T02:25:38.957Z,100488.77
2022-12-20T02:28:37.113Z,100492.64
2022-12-20T02:31:12.364Z,100483.72
2022-12-20T02:33:50.993Z,100477.40
2022-12-20T02:36:20.207Z,100473.86
2022-12-20T02:38:51.655Z,100464.91
2022-12-20T02:41:32.948Z,100473.98
2022-12-20T02:44:50.454Z,100467.55
2022-12-20T02:47:25.712Z,100466.81
2022-12-20T02:49:59.413Z,100475.14
2022-12-20T02:52:31.581Z,100470.86
2022-12-20T02:55:01.803Z,100483.20
2022-12-20T02:57:46.176Z,100502.80
2022-12-20T03:00:19.900Z,100501.52
2022-12-20T03:03:10.495Z,100507.85
2022-12-20T03:05:47.536Z,100513.07
2022-12-20T03:08:19.811Z,100514.33
2022-12-20T03:10:49.213Z,100514.52
2022-12-20T03:13:20.786Z,100513.89
2022-12-20T03:15:54.095Z,100507.92
2022-12-20T03:18:23.293Z,100507.13
2022-12-20T03:20:55.203Z,100492.62
2022-12-20T03:23:25.698Z,100488.17
2022-12-20T03:25:54.973Z,100480.17
2022-12-20T03:28:46.677Z,100472.24
2022-12-20T03:31:22.405Z,100466.09
2022-12-20T03:33:54.040Z,100458.16
2022-12-20T03:36:24.547Z,100457.41
2022-12-20T03:38:58.986Z,100461.20
2022-12-20T03:41:29.994Z,100461.66
2022-12-20T03:48:32.680Z,100459.79
2022-12-20T03:51:04.377Z,100469.60
2022-12-20T03:53:34.104Z,100464.57
2022-12-20T03:56:05.680Z,100464.04
2022-12-20T03:58:35.900Z,100458.86
2022-12-20T04:01:19.656Z,100450.85
2022-12-20T04:03:49.362Z,100452.13
2022-12-20T04:06:21.415Z,100463.52
2022-12-20T04:08:50.875Z,100461.86
2022-12-20T04:11:25.885Z,100470.38
2022-12-20T04:14:04.913Z,100467.77
2022-12-20T04:16:36.121Z,100463.30
2022-12-20T04:19:06.488Z,100466.77
2022-12-20T04:21:43.241Z,100462.55
2022-12-20T04:24:13.549Z,100444.71
2022-12-20T04:26:50.042Z,100437.53
2022-12-20T04:29:19.190Z,100433.77
2022-12-20T04:31:48.988Z,100438.80
2022-12-20T04:34:18.212Z,100442.77
2022-12-20T04:36:47.195Z,100445.07
2022-12-20T04:39:23.692Z,100445.08
2022-12-20T04:42:10.222Z,100446.59
2022-12-20T04:45:54.787Z,100442.19
2022-12-20T04:48:56.378Z,100440.14
2022-12-20T04:51:22.250Z,100428.53
2022-12-20T04:53:55.585Z,100425.06
2022-12-20T04:56:35.706Z,100420.28
2022-12-20T04:59:11.937Z,100418.73
2022-12-20T05:01:42.721Z,100423.59
2022-12-20T05:04:16.893Z,100430.27
2022-12-20T05:06:46.879Z,100428.73
2022-12-20T05:09:16.279Z,100430.60
2022-12-20T05:11:47.803Z,100429.72
2022-12-20T05:14:16.958Z,100432.05
2022-12-20T05:16:46.109Z,100435.52
2022-12-20T05:19:17.145Z,100443.25
2022-12-20T05:22:06.363Z,100439.52
2022-12-20T05:24:56.585Z,100437.61
2022-12-20T05:27:35.245Z,100437.60
2022-12-20T05:30:11.800Z,100431.02
2022-12-20T05:32:46.027Z,100427.67
2022-12-20T05:35:15.361Z,100423.95
2022-12-20T05:37:45.837Z,100429.30
2022-12-20T05:40:19.667Z,100435.95
2022-12-20T05:43:15.961Z,100443.39
2022-12-20T05:45:51.627Z,100442.05
2022-12-20T05:48:25.885Z,100446.36
2022-12-20T05:50:55.387Z,100439.80
2022-12-20T05:53:30.832Z,100439.61
2022-12-20T05:56:04.199Z,100437.41
2022-12-20T05:58:37.323Z,100439.02
2022-12-20T06:01:10.285Z,100433.57
2022-12-20T06:03:41.311Z,100426.86
2022-12-20T06:06:18.742Z,100420.04
2022-12-20T06:08:50.701Z,100421.10
2022-12-20T06:11:34.544Z,100427.45
2022-12-20T06:14:11.051Z,100430.14
2022-12-20T06:16:47.209Z,100425.50
2022-12-20T06:19:21.819Z,100419.52
2022-12-20T06:21:55.614Z,100422.14
2022-12-20T06:24:36.109Z,100433.23
2022-12-20T06:27:07.416Z,100442.61
2022-12-20T06:29:38.275Z,100442.83
2022-12-20T06:32:11.986Z,100440.73
2022-12-20T06:34:43.509Z,100439.74
2022-12-20T06:37:16.308Z,100442.12
2022-12-20T06:39:47.206Z,100450.71
2022-12-20T07:14:02.139Z,100463.66
2022-12-20T07:16:32.627Z,100467.83
2022-12-20T07:19:02.900Z,100469.44
2022-12-20T07:21:34.440Z,100470.86
2022-12-20T07:24:05.045Z,100476.22
2022-12-20T07:26:34.109Z,100477.13
2022-12-20T07:29:11.869Z,100474.27
2022-12-20T07:31:44.626Z,100478.12
2022-12-20T07:34:14.303Z,100475.62
2022-12-20T07:36:45.168Z,100479.73
2022-12-20T07:39:14.578Z,100485.25
2022-12-20T07:41:45.411Z,100481.05
2022-12-20T07:48:54.633Z,100480.80
2022-12-20T07:51:53.507Z,100485.58
2022-12-20T07:54:34.132Z,100480.30
2022-12-20T07:57:14.736Z,100483.70
2022-12-20T07:59:51.624Z,100475.77
2022-12-20T08:02:34.979Z,100482.53
2022-12-20T08:05:14.584Z,100477.98
2022-12-20T08:07:47.221Z,100473.23
2022-12-20T08:10:20.326Z,100465.69
2022-12-20T08:12:51.900Z,100462.59
2022-12-20T08:15:23.442Z,100462.89
2022-12-20T08:17:53.991Z,100468.59
2022-12-20T08:20:23.626Z,100467.05
2022-12-20T08:22:56.796Z,100470.48
2022-12-20T08:25:34.547Z,100473.28
2022-12-20T08:28:10.407Z,100470.61
2022-12-20T08:30:40.911Z,100475.76
2022-12-20T08:33:10.417Z,100467.66
2022-12-20T08:35:39.950Z,100467.73
2022-12-20T08:38:09.409Z,100461.48
2022-12-20T08:40:39.972Z,100456.66
2022-12-20T08:47:30.579Z,100446.47
2022-12-20T08:49:59.830Z,100446.48
2022-12-20T08:52:30.092Z,100448.25
2022-12-20T08:55:01.487Z,100452.65
2022-12-20T08:57:31.280Z,100450.11
2022-12-20T09:00:00.378Z,100450.54
2022-12-20T09:02:30.104Z,100449.95
2022-12-20T09:04:59.514Z,100453.04
2022-12-20T09:07:29.291Z,100456.54
2022-12-20T09:09:58.497Z,100464.41
2022-12-20T09:12:27.753Z,100463.92
2022-12-20T09:14:56.974Z,100461.19
2022-12-20T09:17:26.295Z,100468.39
2022-12-20T09:19:55.646Z,100471.23
2022-12-20T09:22:24.828Z,100466.68
2022-12-20T09:24:53.999Z,100466.45
2022-12-20T09:27:23.470Z,100466.32
2022-12-20T09:29:52.594Z,100471.75
2022-12-20T09:32:21.620Z,100469.86
2022-12-20T09:34:50.609Z,100467.91
2022-12-20T09:37:44.987Z,100461.23
2022-12-20T09:40:22.635Z,100455.30
2022-12-20T09:47:38.590Z,100457.34
2022-12-20T09:50:08.905Z,100448.30
2022-12-20T09:52:52.739Z,100454.67
2022-12-20T09:55:46.270Z,100450.64
2022-12-20T09:58:36.853Z,100449.89
2022-12-20T10:01:27.757Z,100445.03
2022-12-20T10:04:04.035Z,100439.98
2022-12-20T10:06:53.763Z,100436.55
2022-12-20T10:10:33.389Z,100410.40
2022-12-20T10:14:01.199Z,100407.59
2022-12-20T10:16:45.809Z,100399.86
2022-12-20T10:19:36.907Z,100401.40
2022-12-20T10:22:13.729Z,100393.05
2022-12-20T10:24:53.419Z,100399.77
2022-12-20T10:27:39.220Z,100397.92
2022-12-20T10:30:22.144Z,100397.67
2022-12-20T10:32:58.909Z,100394.85
2022-12-20T10:35:29.474Z,100386.81
2022-12-20T10:38:09.194Z,100388.39
2022-12-20T10:41:22.233Z,100371.40
2022-12-20T10:48:30.303Z,100371.29
2022-12-20T10:51:24.293Z,100381.05
2022-12-20T10:53:54.121Z,100380.96
2022-12-20T10:57:24.192Z,100385.44
2022-12-20T11:00:02.965Z,100385.99
2022-12-20T11:02:42.310Z,100379.46
2022-12-20T11:05:32.735Z,100387.99
2022-12-20T11:08:37.688Z,100381.55
2022-12-20T11:11:26.184Z,100380.39
2022-12-20T11:14:15.021Z,100376.54
2022-12-20T11:16:47.649Z,100374.50
2022-12-20T11:19:18.684Z,100367.11
2022-12-20T11:22:02.859Z,100364.42
2022-12-20T11:24:58.252Z,100368.47
2022-12-20T11:27:51.309Z,100376.36
2022-12-20T11:30:49.825Z,100373.27
2022-12-20T11:33:47.601Z,100373.69
2022-12-20T11:36:43.295Z,100373.30
2022-12-20T11:39:45.475Z,100367.89
2022-12-20T11:42:30.261Z,100370.79
2022-12-20T11:45:24.168Z,100364.77
2022-12-20T11:48:30.390Z,100362.95
2022-12-20T11:51:27.266Z,100355.09
2022-12-20T11:54:13.127Z,100352.08
2022-12-20T11:56:49.544Z,100363.88
2022-12-20T11:59:43.851Z,100375.21
2022-12-20T12:02:41.563Z,100376.95
2022-12-20T12:05:18.224Z,100375.24
2022-12-20T12:07:58.205Z,100380.19
2022-12-20T12:10:37.270Z,100376.37
2022-12-20T12:13:25.554Z,100368.70
2022-12-20T12:16:02.280Z,100368.77
2022-12-20T12:18:35.646Z,100366.98
2022-12-20T12:21:26.327Z,100359.89
2022-12-20T12:24:16.271Z,100350.82
2022-12-20T12:26:45.985Z,100347.95
2022-12-20T12:29:18.991Z,100347.33
2022-12-20T12:32:05.265Z,100347.25
2022-12-20T12:35:09.416Z,100346.56
2022-12-20T12:37:56.201Z,100345.16
2022-12-20T12:41:06.983Z,100353.52
2022-12-20T12:48:16.363Z,100354.81
2022-12-20T12:50:49.903Z,100351.44
2022-12-20T12:53:31.256Z,100356.85
2022-12-20T12:56:45.151Z,100352.83
2022-12-20T12:59:33.639Z,100351.11
2022-12-20T13:02:14.709Z,100348.70
2022-12-20T13:05:26.288Z,100345.44
2022-12-20T13:08:18.180Z,100343.23
2022-12-20T13:10:57.135Z,100337.67
2022-12-20T13:13:27.999Z,100333.81
2022-12-20T13:16:09.962Z,100336.96
2022-12-20T13:18:55.821Z,100334.83
2022-12-20T13:21:38.470Z,100339.23
2022-12-20T13:24:38.554Z,100343.19
2022-12-20T13:27:30.044Z,100342.02
2022-12-20T13:30:22.479Z,100340.15
2022-12-20T13:32:51.596Z,100334.67
2022-12-20T13:35:26.563Z,100345.18
2022-12-20T13:38:02.581Z,100342.42
2022-12-20T13:40:48.444Z,100353.89
2022-12-20T13:47:43.143Z,100348.02
2022-12-20T13:50:26.940Z,100349.70
2022-12-20T13:52:58.008Z,100353.48
2022-12-20T13:55:40.147Z,100355.94
2022-12-20T13:58:18.728Z,100352.77
2022-12-20T14:00:50.823Z,100348.64
2022-12-20T14:03:27.172Z,100341.14
2022-12-20T14:06:04.528Z,100347.27
2022-12-20T14:08:43.129Z,100345.88
2022-12-20T14:11:16.601Z,100340.79
2022-12-20T14:13:58.456Z,100332.67
2022-12-20T14:16:30.039Z,100334.98
2022-12-20T14:19:07.420Z,100331.63
2022-12-20T14:21:44.574Z,100329.23
2022-12-20T14:24:18.573Z,100322.59
2022-12-20T14:26:51.875Z,100325.16
2022-12-20T14:29:32.117Z,100325.25
2022-12-20T14:32:01.231Z,100318.85
2022-12-20T14:34:38.080Z,100320.48
2022-12-20T14:37:26.333Z,100320.35
2022-12-20T14:40:09.674Z,100313.54
2022-12-20T14:42:41.501Z,100317.02
2022-12-20T14:45:11.967Z,100313.39
2022-12-20T14:48:17.064Z,100311.65
2022-12-20T14:50:54.411Z,100307.82
2022-12-20T14:53:30.571Z,100304.31
2022-12-20T14:56:02.437Z,100304.59
2022-12-20T14:58:34.254Z,100301.52
2022-12-20T15:01:21.841Z,100304.14
2022-12-20T15:03:59.960Z,100299.95
2022-12-20T15:06:34.263Z,100297.35
2022-12-20T15:09:05.679Z,100296.44
2022-12-20T15:11:37.412Z,100290.73
2022-12-20T15:14:37.587Z,100287.16
2022-12-20T15:17:16.203Z,100286.45
2022-12-20T15:19:45.856Z,100288.07
2022-12-20T15:22:20.661Z,100292.75
2022-12-20T15:24:51.922Z,100287.02
2022-12-20T15:27:21.631Z,100294.77
2022-12-20T15:29:54.898Z,100298.67
2022-12-20T15:32:30.113Z,100298.79
2022-12-20T15:34:59.747Z,100301.67
2022-12-20T15:37:29.333Z,100297.67
2022-12-20T15:40:01.722Z,100291.27
2022-12-20T15:42:30.946Z,100287.70
2022-12-20T15:49:30.749Z,100284.77
2022-12-20T15:52:02.662Z,100289.36
2022-12-20T15:54:37.767Z,100279.19
2022-12-20T15:57:12.384Z,100265.21
2022-12-20T16:00:01.538Z,100267.29
2022-12-20T16:02:40.938Z,100269.44
2022-12-20T16:05:14.207Z,100269.88
2022-12-20T16:07:44.163Z,100263.23
2022-12-20T16:10:16.122Z,100281.89
2022-12-20T16:12:47.626Z,100281.37
2022-12-20T16:15:23.597Z,100271.50
2022-12-20T16:17:54.612Z,100268.02
2022-12-20T16:20:27.950Z,100261.16
2022-12-20T16:22:57.447Z,100262.93
2022-12-20T16:25:37.302Z,100260.90
2022-12-20T16:28:09.054Z,100257.50
2022-12-20T16:30:38.157Z,100256.91
2022-12-20T16:33:08.848Z,100248.13
2022-12-20T16:35:38.514Z,100240.90
2022-12-20T16:38:10.704Z,100244.64
2022-12-20T16:40:41.119Z,100246.29
2022-12-20T16:47:43.352Z,100251.79
2022-12-20T16:50:13.156Z,100250.27
2022-12-20T16:52:44.236Z,100252.15
2022-12-20T16:55:19.307Z,100258.02
2022-12-20T16:57:49.608Z,100264.94
2022-12-20T17:00:25.597Z,100272.60
2022-12-20T17:02:54.905Z,100277.14
2022-12-20T17:05:30.437Z,100272.21
2022-12-20T17:08:03.199Z,100264.81
2022-12-20T17:10:34.488Z,100268.29
2022-12-20T17:13:05.012Z,100262.84
2022-12-20T17:15:34.508Z,100251.25
2022-12-20T17:18:06.932Z,100244.48
2022-12-20T17:20:37.071Z,100249.30
2022-12-20T17:23:12.307Z,100256.83
2022-12-20T17:25:48.744Z,100256.46
2022-12-20T17:28:21.178Z,100257.27
2022-12-20T17:30:50.920Z,100249.05
2022-12-20T17:33:21.869Z,100250.52
2022-12-20T17:58:54.132Z,100230.02
2022-12-20T18:01:35.869Z,100226.46
2022-12-20T18:04:09.713Z,100219.67
2022-12-20T18:06:43.714Z,100221.71
2022-12-20T18:09:16.168Z,100220.22
2022-12-20T18:11:47.173Z,100216.51
2022-12-20T18:14:18.013Z,100213.80
2022-12-20T18:16:48.715Z,100206.98
2022-12-20T18:19:20.944Z,100210.16
2022-12-20T18:21:51.332Z,100210.77
2022-12-20T18:24:21.862Z,100209.39
2022-12-20T18:26:52.371Z,100208.98
2022-12-20T18:29:22.594Z,100204.17
2022-12-20T18:31:51.703Z,100200.88
2022-12-20T18:34:22.893Z,100197.92
2022-12-20T18:36:54.145Z,100198.66
2022-12-20T18:39:24.538Z,100194.95
2022-12-20T18:41:56.095Z,100199.52
2022-12-20T18:44:25.735Z,100198.12
2022-12-20T18:46:57.718Z,100197.13
2022-12-20T18:49:27.988Z,100195.27
2022-12-20T18:51:59.997Z,100191.39
2022-12-20T18:54:30.738Z,100191.03
2022-12-20T18:57:00.668Z,100183.95
2022-12-20T18:59:33.101Z,100189.11
2022-12-20T19:02:04.624Z,100186.63
2022-12-20T19:04:35.113Z,100182.88
2022-12-20T19:07:05.396Z,100185.25
2022-12-20T19:09:36.352Z,100184.83
2022-12-20T19:12:06.849Z,100187.91
2022-12-20T19:14:38.618Z,100179.23
2022-12-20T19:17:08.513Z,100176.39
2022-12-20T19:19:39.997Z,100173.61
2022-12-20T19:22:10.618Z,100168.77
2022-12-20T19:24:41.439Z,100169.38
2022-12-20T19:27:13.599Z,100165.46
2022-12-20T19:29:43.405Z,100164.41
2022-12-20T19:32:14.918Z,100166.99
2022-12-20T19:34:45.038Z,100165.22
2022-12-20T19:37:17.078Z,100167.42
2022-12-20T19:39:48.494Z,100172.75
2022-12-20T19:42:25.132Z,100172.19
2022-12-20T19:45:02.585Z,100167.19
2022-12-20T19:47:38.347Z,100157.02
2022-12-20T19:50:09.627Z,100160.54
2022-12-20T19:52:41.002Z,100157.77
2022-12-20T19:55:11.053Z,100151.37
2022-12-20T19:57:42.076Z,100147.73
2022-12-20T20:00:11.942Z,100150.33
2022-12-20T20:02:44.242Z,100147.93
2022-12-20T20:05:15.738Z,100147.02
2022-12-20T20:07:45.385Z,100143.94
2022-12-20T20:10:14.558Z,100141.20
2022-12-20T20:12:45.575Z,100146.36
2022-12-20T20:15:14.710Z,100148.89
2022-12-20T20:17:46.012Z,100150.25
2022-12-20T20:20:16.986Z,100147.56
2022-12-20T20:22:48.541Z,100142.29
2022-12-20T20:25:19.295Z,100142.53
2022-12-20T20:27:49.512Z,100143.80
2022-12-20T20:30:21.009Z,100139.69
2022-12-20T20:32:51.457Z,100139.73
2022-12-20T20:35:23.944Z,100144.88
2022-12-20T20:37:55.759Z,100148.48
2022-12-20T20:40:28.450Z,100145.29
2022-12-20T20:43:00.131Z,100152.13
2022-12-20T20:45:31.018Z,100153.64
2022-12-20T20:48:05.689Z,100152.91
2022-12-20T20:50:36.982Z,100153.09
2022-12-20T20:53:07.595Z,100157.96
2022-12-20T20:55:39.904Z,100156.51
2022-12-20T20:58:09.106Z,100158.98
2022-12-20T21:00:40.595Z,100157.30
2022-12-20T21:03:12.511Z,100150.95
2022-12-20T21:08:35.385Z,100144.24
2022-12-20T21:11:06.623Z,100138.20
2022-12-20T21:13:36.636Z,100147.11
2022-12-20T21:16:10.197Z,100151.04
2022-12-20T21:18:39.695Z,100144.92
2022-12-20T21:21:11.430Z,100136.60
2022-12-20T21:23:45.612Z,100136.48
2022-12-20T21:26:17.340Z,100132.16
2022-12-20T21:28:47.866Z,100134.23
2022-12-20T21:31:19.764Z,100135.67
2022-12-20T21:33:49.702Z,100133.04
2022-12-20T21:36:20.325Z,100138.80
2022-12-20T21:38:51.874Z,100143.90
2022-12-20T21:41:24.915Z,100145.86
2022-12-20T21:44:22.904Z,100145.34
2022-12-20T21:46:53.485Z,100140.84
2022-12-20T21:49:22.937Z,100134.92
2022-12-20T21:51:56.761Z,100127.46
2022-12-20T21:54:26.029Z,100127.14
2022-12-20T21:56:55.011Z,100133.93
2022-12-20T21:59:24.518Z,100131.88
2022-12-20T22:01:56.189Z,100132.79
2022-12-20T22:04:26.146Z,100135.80
2022-12-20T22:06:55.313Z,100128.89
2022-12-20T22:09:25.201Z,100126.88
2022-12-20T22:11:55.557Z,100122.70
2022-12-20T22:14:26.078Z,100124.80
2022-12-20T22:16:56.274Z,100121.98
2022-12-20T22:19:25.460Z,100119.98
2022-12-20T22:21:58.212Z,100120.59
2022-12-20T22:24:29.153Z,100116.39
2022-12-20T22:26:59.538Z,100108.22
2022-12-20T22:29:30.702Z,100101.25
2022-12-20T22:32:01.170Z,100089.29
2022-12-20T22:34:30.446Z,100090.85
2022-12-20T22:37:00.131Z,100089.41
2022-12-20T22:39:29.219Z,100087.85
2022-12-20T22:42:00.616Z,100079.95
2022-12-20T22:44:29.958Z,100067.91
2022-12-20T22:49:45.663Z,100056.66
2022-12-20T22:52:16.041Z,100051.31
2022-12-20T22:54:47.487Z,100050.64
2022-12-20T22:57:17.246Z,100042.02
2022-12-20T22:59:47.568Z,100047.36
2022-12-20T23:02:18.395Z,100049.83
2022-12-20T23:04:51.205Z,100046.81
2022-12-20T23:07:21.640Z,100043.19
2022-12-20T23:09:51.137Z,100051.48
2022-12-20T23:12:38.929Z,100048.38
2022-12-20T23:15:31.050Z,100052.15
2022-12-20T23:18:00.023Z,100038.92
2022-12-20T23:20:47.750Z,100031.58
2022-12-20T23:23:16.711Z,100022.02
2022-12-20T23:25:48.296Z,100013.55
2022-12-20T23:28:17.294Z,100009.09
2022-12-20T23:30:46.235Z,100004.73
2022-12-20T23:33:15.573Z,99998.20
2022-12-20T23:35:48.433Z,99991.95
2022-12-20T23:38:17.847Z,99992.02
2022-12-20T23:40:47.161Z,99999.12
2022-12-20T23:43:17.423Z,100004.57
2022-12-20T23:45:46.588Z,100000.25
2022-12-20T23:48:17.934Z,99995.42
2022-12-20T23:50:56.363Z,99995.88
2022-12-20T23:53:27.575Z,100001.83
2022-12-20T23:55:58.094Z,99988.45
2022-12-20T23:58:28.272Z,99980.73
